sensor_id;sensor_type;location;lat;lon;timestamp;P1;durP1;ratioP1;P2;durP2;ratioP2
21501;SDS011;27639;48.674;9.242;2023-03-03T00:02:03;38.85;;;23.65;;
21501;SDS011;27639;48.674;9.242;2023-03-03T00:04:29;38.53;;;24.77;;
21501;SDS011;27639;48.674;9.242;2023-03-03T00:06:54;36.88;;;23.92;;
21501;SDS011;27639;48.674;9.242;2023-03-03T00:09:20;38.17;;;24.02;;
21501;SDS011;27639;48.674;9.242;2023-03-03T00:11:46;37.53;;;22.67;;
21501;SDS011;27639;48.674;9.242;2023-03-03T00:14:21;36.33;;;23.38;;
21501;SDS011;27639;48.674;9.242;2023-03-03T00:16:52;35.90;;;22.48;;
21501;SDS011;27639;48.674;9.242;2023-03-03T00:19:19;37.10;;;22.17;;
21501;SDS011;27639;48.674;9.242;2023-03-03T00:21:46;38.33;;;23.70;;
21501;SDS011;27639;48.674;9.242;2023-03-03T00:26:39;37.63;;;23.88;;
21501;SDS011;27639;48.674;9.242;2023-03-03T00:31:50;35.47;;;21.98;;
21501;SDS011;27639;48.674;9.242;2023-03-03T00:36:41;37.45;;;22.92;;
21501;SDS011;27639;48.674;9.242;2023-03-03T00:41:43;38.47;;;22.95;;
21501;SDS011;27639;48.674;9.242;2023-03-03T00:44:31;36.35;;;22.35;;
21501;SDS011;27639;48.674;9.242;2023-03-03T00:47:01;34.60;;;20.95;;
21501;SDS011;27639;48.674;9.242;2023-03-03T00:50:17;35.47;;;21.60;;
21501;SDS011;27639;48.674;9.242;2023-03-03T00:52:57;37.25;;;22.60;;
21501;SDS011;27639;48.674;9.242;2023-03-03T00:55:26;35.05;;;21.40;;
21501;SDS011;27639;48.674;9.242;2023-03-03T00:57:53;40.22;;;22.50;;
21501;SDS011;27639;48.674;9.242;2023-03-03T01:00:18;38.50;;;24.17;;
21501;SDS011;27639;48.674;9.242;2023-03-03T01:02:44;35.53;;;23.25;;
21501;SDS011;27639;48.674;9.242;2023-03-03T01:05:12;37.67;;;22.67;;
21501;SDS011;27639;48.674;9.242;2023-03-03T01:07:38;36.25;;;22.98;;
21501;SDS011;27639;48.674;9.242;2023-03-03T01:10:04;37.83;;;22.73;;
21501;SDS011;27639;48.674;9.242;2023-03-03T01:12:30;37.95;;;23.75;;
21501;SDS011;27639;48.674;9.242;2023-03-03T01:14:56;40.35;;;25.85;;
21501;SDS011;27639;48.674;9.242;2023-03-03T01:17:21;40.20;;;24.95;;
21501;SDS011;27639;48.674;9.242;2023-03-03T01:19:47;39.67;;;24.90;;
21501;SDS011;27639;48.674;9.242;2023-03-03T01:22:12;36.60;;;23.98;;
21501;SDS011;27639;48.674;9.242;2023-03-03T01:24:38;37.58;;;23.83;;
21501;SDS011;27639;48.674;9.242;2023-03-03T01:27:04;37.35;;;23.92;;
21501;SDS011;27639;48.674;9.242;2023-03-03T01:29:29;37.88;;;24.60;;
21501;SDS011;27639;48.674;9.242;2023-03-03T01:31:55;34.22;;;23.17;;
21501;SDS011;27639;48.674;9.242;2023-03-03T01:34:20;36.67;;;22.42;;
21501;SDS011;27639;48.674;9.242;2023-03-03T01:36:46;40.28;;;23.73;;
21501;SDS011;27639;48.674;9.242;2023-03-03T01:39:12;38.63;;;23.38;;
21501;SDS011;27639;48.674;9.242;2023-03-03T01:41:37;40.20;;;24.48;;
21501;SDS011;27639;48.674;9.242;2023-03-03T01:44:03;35.20;;;21.83;;
21501;SDS011;27639;48.674;9.242;2023-03-03T01:46:51;39.30;;;23.67;;
21501;SDS011;27639;48.674;9.242;2023-03-03T01:49:17;35.92;;;22.23;;
21501;SDS011;27639;48.674;9.242;2023-03-03T01:51:54;38.25;;;22.63;;
21501;SDS011;27639;48.674;9.242;2023-03-03T01:54:25;40.53;;;23.13;;
21501;SDS011;27639;48.674;9.242;2023-03-03T01:56:55;36.25;;;22.73;;
21501;SDS011;27639;48.674;9.242;2023-03-03T01:59:25;37.15;;;22.45;;
21501;SDS011;27639;48.674;9.242;2023-03-03T02:01:54;37.65;;;22.45;;
21501;SDS011;27639;48.674;9.242;2023-03-03T02:04:20;35.38;;;22.50;;
21501;SDS011;27639;48.674;9.242;2023-03-03T02:06:50;38.60;;;24.00;;
21501;SDS011;27639;48.674;9.242;2023-03-03T02:09:26;34.22;;;22.65;;
21501;SDS011;27639;48.674;9.242;2023-03-03T02:11:59;33.85;;;21.92;;
21501;SDS011;27639;48.674;9.242;2023-03-03T02:14:27;38.00;;;22.45;;
21501;SDS011;27639;48.674;9.242;2023-03-03T02:16:53;37.47;;;22.73;;
21501;SDS011;27639;48.674;9.242;2023-03-03T02:19:36;39.67;;;23.20;;
21501;SDS011;27639;48.674;9.242;2023-03-03T02:22:05;36.42;;;22.25;;
21501;SDS011;27639;48.674;9.242;2023-03-03T02:24:37;37.47;;;23.00;;
21501;SDS011;27639;48.674;9.242;2023-03-03T02:27:15;35.90;;;22.33;;
21501;SDS011;27639;48.674;9.242;2023-03-03T02:29:40;34.70;;;21.80;;
21501;SDS011;27639;48.674;9.242;2023-03-03T02:32:06;36.80;;;22.55;;
21501;SDS011;27639;48.674;9.242;2023-03-03T02:34:43;37.42;;;22.23;;
21501;SDS011;27639;48.674;9.242;2023-03-03T02:37:10;35.38;;;21.90;;
21501;SDS011;27639;48.674;9.242;2023-03-03T02:39:36;37.33;;;23.02;;
21501;SDS011;27639;48.674;9.242;2023-03-03T02:44:51;38.08;;;23.25;;
21501;SDS011;27639;48.674;9.242;2023-03-03T02:47:17;37.80;;;22.60;;
21501;SDS011;27639;48.674;9.242;2023-03-03T02:49:42;35.08;;;22.40;;
21501;SDS011;27639;48.674;9.242;2023-03-03T02:52:10;35.75;;;21.92;;
21501;SDS011;27639;48.674;9.242;2023-03-03T02:54:36;33.45;;;21.23;;
21501;SDS011;27639;48.674;9.242;2023-03-03T02:57:02;34.58;;;21.33;;
21501;SDS011;27639;48.674;9.242;2023-03-03T02:59:29;35.78;;;22.38;;
21501;SDS011;27639;48.674;9.242;2023-03-03T03:01:55;37.05;;;22.80;;
21501;SDS011;27639;48.674;9.242;2023-03-03T03:04:22;38.45;;;23.15;;
21501;SDS011;27639;48.674;9.242;2023-03-03T03:06:50;38.33;;;21.70;;
21501;SDS011;27639;48.674;9.242;2023-03-03T03:09:17;36.38;;;21.65;;
21501;SDS011;27639;48.674;9.242;2023-03-03T03:11:43;36.60;;;22.05;;
21501;SDS011;27639;48.674;9.242;2023-03-03T03:14:10;34.83;;;21.48;;
21501;SDS011;27639;48.674;9.242;2023-03-03T03:16:37;35.35;;;21.83;;
21501;SDS011;27639;48.674;9.242;2023-03-03T03:19:03;36.85;;;22.25;;
21501;SDS011;27639;48.674;9.242;2023-03-03T03:21:29;37.28;;;23.20;;
21501;SDS011;27639;48.674;9.242;2023-03-03T03:23:55;37.20;;;22.35;;
21501;SDS011;27639;48.674;9.242;2023-03-03T03:26:21;37.13;;;22.73;;
21501;SDS011;27639;48.674;9.242;2023-03-03T03:28:47;34.13;;;21.30;;
21501;SDS011;27639;48.674;9.242;2023-03-03T03:31:13;38.17;;;22.98;;
21501;SDS011;27639;48.674;9.242;2023-03-03T03:33:39;37.70;;;22.58;;
21501;SDS011;27639;48.674;9.242;2023-03-03T03:36:05;40.88;;;23.02;;
21501;SDS011;27639;48.674;9.242;2023-03-03T03:38:31;35.92;;;21.85;;
21501;SDS011;27639;48.674;9.242;2023-03-03T03:40:57;40.78;;;22.17;;
21501;SDS011;27639;48.674;9.242;2023-03-03T03:43:23;40.08;;;24.27;;
21501;SDS011;27639;48.674;9.242;2023-03-03T03:45:49;38.53;;;23.02;;
21501;SDS011;27639;48.674;9.242;2023-03-03T03:48:15;37.72;;;23.02;;
21501;SDS011;27639;48.674;9.242;2023-03-03T03:50:43;39.33;;;22.95;;
21501;SDS011;27639;48.674;9.242;2023-03-03T03:53:09;39.65;;;23.48;;
21501;SDS011;27639;48.674;9.242;2023-03-03T03:55:34;35.15;;;22.75;;
21501;SDS011;27639;48.674;9.242;2023-03-03T03:58:00;35.25;;;22.35;;
21501;SDS011;27639;48.674;9.242;2023-03-03T04:00:25;34.05;;;21.80;;
21501;SDS011;27639;48.674;9.242;2023-03-03T04:02:51;37.55;;;22.50;;
21501;SDS011;27639;48.674;9.242;2023-03-03T04:05:17;39.97;;;23.48;;
21501;SDS011;27639;48.674;9.242;2023-03-03T04:07:42;38.45;;;23.17;;
21501;SDS011;27639;48.674;9.242;2023-03-03T04:10:08;39.45;;;23.00;;
21501;SDS011;27639;48.674;9.242;2023-03-03T04:12:35;37.58;;;22.35;;
21501;SDS011;27639;48.674;9.242;2023-03-03T04:15:04;40.85;;;23.80;;
21501;SDS011;27639;48.674;9.242;2023-03-03T04:17:31;39.72;;;22.60;;
21501;SDS011;27639;48.674;9.242;2023-03-03T04:19:57;37.90;;;23.85;;
21501;SDS011;27639;48.674;9.242;2023-03-03T04:22:23;42.42;;;24.85;;
21501;SDS011;27639;48.674;9.242;2023-03-03T04:24:48;40.08;;;24.58;;
21501;SDS011;27639;48.674;9.242;2023-03-03T04:27:14;36.90;;;23.83;;
21501;SDS011;27639;48.674;9.242;2023-03-03T04:29:40;40.22;;;23.88;;
21501;SDS011;27639;48.674;9.242;2023-03-03T04:32:06;37.53;;;22.38;;
21501;SDS011;27639;48.674;9.242;2023-03-03T04:34:31;36.10;;;22.65;;
21501;SDS011;27639;48.674;9.242;2023-03-03T04:36:57;38.88;;;23.02;;
21501;SDS011;27639;48.674;9.242;2023-03-03T04:39:23;39.03;;;23.80;;
21501;SDS011;27639;48.674;9.242;2023-03-03T04:41:48;36.10;;;24.10;;
21501;SDS011;27639;48.674;9.242;2023-03-03T04:44:14;38.80;;;23.98;;
21501;SDS011;27639;48.674;9.242;2023-03-03T04:46:40;40.80;;;24.27;;
21501;SDS011;27639;48.674;9.242;2023-03-03T04:49:05;37.70;;;24.17;;
21501;SDS011;27639;48.674;9.242;2023-03-03T04:51:32;40.80;;;24.17;;
21501;SDS011;27639;48.674;9.242;2023-03-03T04:53:58;41.55;;;24.30;;
21501;SDS011;27639;48.674;9.242;2023-03-03T04:56:24;41.25;;;23.85;;
21501;SDS011;27639;48.674;9.242;2023-03-03T04:58:50;39.75;;;24.48;;
21501;SDS011;27639;48.674;9.242;2023-03-03T05:01:15;41.05;;;24.52;;
21501;SDS011;27639;48.674;9.242;2023-03-03T05:03:43;41.67;;;25.17;;
21501;SDS011;27639;48.674;9.242;2023-03-03T05:06:09;43.72;;;24.88;;
21501;SDS011;27639;48.674;9.242;2023-03-03T05:08:34;38.10;;;23.27;;
21501;SDS011;27639;48.674;9.242;2023-03-03T05:11:00;40.20;;;25.58;;
21501;SDS011;27639;48.674;9.242;2023-03-03T05:13:26;40.03;;;24.17;;
21501;SDS011;27639;48.674;9.242;2023-03-03T05:15:52;40.20;;;24.48;;
21501;SDS011;27639;48.674;9.242;2023-03-03T05:18:19;40.08;;;24.15;;
21501;SDS011;27639;48.674;9.242;2023-03-03T05:20:46;39.45;;;24.50;;
21501;SDS011;27639;48.674;9.242;2023-03-03T05:23:13;42.20;;;24.63;;
21501;SDS011;27639;48.674;9.242;2023-03-03T05:25:39;39.60;;;23.05;;
21501;SDS011;27639;48.674;9.242;2023-03-03T05:28:06;37.75;;;23.88;;
21501;SDS011;27639;48.674;9.242;2023-03-03T05:30:32;38.03;;;23.60;;
21501;SDS011;27639;48.674;9.242;2023-03-03T05:32:58;38.83;;;24.50;;
21501;SDS011;27639;48.674;9.242;2023-03-03T05:35:24;38.25;;;23.90;;
21501;SDS011;27639;48.674;9.242;2023-03-03T05:37:50;43.47;;;24.42;;
21501;SDS011;27639;48.674;9.242;2023-03-03T05:40:17;39.70;;;24.60;;
21501;SDS011;27639;48.674;9.242;2023-03-03T05:42:43;38.92;;;24.08;;
21501;SDS011;27639;48.674;9.242;2023-03-03T05:45:09;36.35;;;22.95;;
21501;SDS011;27639;48.674;9.242;2023-03-03T05:47:35;37.70;;;24.08;;
21501;SDS011;27639;48.674;9.242;2023-03-03T05:50:00;37.45;;;23.75;;
21501;SDS011;27639;48.674;9.242;2023-03-03T05:52:26;44.53;;;25.63;;
21501;SDS011;27639;48.674;9.242;2023-03-03T05:54:52;39.92;;;23.63;;
21501;SDS011;27639;48.674;9.242;2023-03-03T05:57:17;41.47;;;24.70;;
21501;SDS011;27639;48.674;9.242;2023-03-03T05:59:43;40.00;;;25.02;;
21501;SDS011;27639;48.674;9.242;2023-03-03T06:02:08;42.65;;;24.92;;
21501;SDS011;27639;48.674;9.242;2023-03-03T06:04:34;41.72;;;24.50;;
21501;SDS011;27639;48.674;9.242;2023-03-03T06:07:00;36.33;;;23.10;;
21501;SDS011;27639;48.674;9.242;2023-03-03T06:09:25;39.47;;;25.27;;
21501;SDS011;27639;48.674;9.242;2023-03-03T06:11:51;43.85;;;25.38;;
21501;SDS011;27639;48.674;9.242;2023-03-03T06:14:17;38.60;;;24.67;;
21501;SDS011;27639;48.674;9.242;2023-03-03T06:16:45;42.00;;;25.58;;
21501;SDS011;27639;48.674;9.242;2023-03-03T06:19:11;39.10;;;24.48;;
21501;SDS011;27639;48.674;9.242;2023-03-03T06:21:37;38.17;;;24.02;;
21501;SDS011;27639;48.674;9.242;2023-03-03T06:24:03;40.42;;;25.50;;
21501;SDS011;27639;48.674;9.242;2023-03-03T06:26:30;40.25;;;23.52;;
21501;SDS011;27639;48.674;9.242;2023-03-03T06:28:56;39.40;;;24.05;;
21501;SDS011;27639;48.674;9.242;2023-03-03T06:31:22;40.03;;;25.13;;
21501;SDS011;27639;48.674;9.242;2023-03-03T06:33:48;41.47;;;24.67;;
21501;SDS011;27639;48.674;9.242;2023-03-03T06:36:15;38.85;;;24.45;;
21501;SDS011;27639;48.674;9.242;2023-03-03T06:38:41;41.97;;;24.63;;
21501;SDS011;27639;48.674;9.242;2023-03-03T06:41:06;40.63;;;24.85;;
21501;SDS011;27639;48.674;9.242;2023-03-03T06:43:33;38.92;;;25.33;;
21501;SDS011;27639;48.674;9.242;2023-03-03T06:45:59;41.40;;;24.60;;
21501;SDS011;27639;48.674;9.242;2023-03-03T06:48:24;44.83;;;25.17;;
21501;SDS011;27639;48.674;9.242;2023-03-03T06:50:50;43.80;;;24.73;;
21501;SDS011;27639;48.674;9.242;2023-03-03T06:53:16;41.00;;;23.48;;
21501;SDS011;27639;48.674;9.242;2023-03-03T06:55:42;38.70;;;23.80;;
21501;SDS011;27639;48.674;9.242;2023-03-03T06:58:18;40.08;;;24.52;;
21501;SDS011;27639;48.674;9.242;2023-03-03T07:00:58;39.47;;;23.52;;
21501;SDS011;27639;48.674;9.242;2023-03-03T07:03:34;47.35;;;25.45;;
21501;SDS011;27639;48.674;9.242;2023-03-03T07:06:00;39.85;;;24.85;;
21501;SDS011;27639;48.674;9.242;2023-03-03T07:08:30;43.65;;;26.35;;
21501;SDS011;27639;48.674;9.242;2023-03-03T07:10:56;42.00;;;25.75;;
21501;SDS011;27639;48.674;9.242;2023-03-03T07:13:30;42.80;;;25.67;;
21501;SDS011;27639;48.674;9.242;2023-03-03T07:15:58;41.70;;;25.85;;
21501;SDS011;27639;48.674;9.242;2023-03-03T07:18:39;39.75;;;25.00;;
21501;SDS011;27639;48.674;9.242;2023-03-03T07:21:33;45.70;;;25.70;;
21501;SDS011;27639;48.674;9.242;2023-03-03T07:24:01;41.78;;;24.70;;
21501;SDS011;27639;48.674;9.242;2023-03-03T07:26:45;41.35;;;25.40;;
21501;SDS011;27639;48.674;9.242;2023-03-03T07:31:44;44.10;;;25.65;;
21501;SDS011;27639;48.674;9.242;2023-03-03T07:34:14;43.13;;;25.35;;
21501;SDS011;27639;48.674;9.242;2023-03-03T07:36:45;40.90;;;26.40;;
21501;SDS011;27639;48.674;9.242;2023-03-03T07:41:54;46.15;;;26.48;;
21501;SDS011;27639;48.674;9.242;2023-03-03T07:44:38;40.50;;;25.98;;
21501;SDS011;27639;48.674;9.242;2023-03-03T07:47:21;41.22;;;25.15;;
21501;SDS011;27639;48.674;9.242;2023-03-03T07:49:47;43.83;;;25.65;;
21501;SDS011;27639;48.674;9.242;2023-03-03T07:52:25;44.22;;;25.38;;
21501;SDS011;27639;48.674;9.242;2023-03-03T07:54:51;46.58;;;26.92;;
21501;SDS011;27639;48.674;9.242;2023-03-03T07:57:36;44.63;;;28.13;;
21501;SDS011;27639;48.674;9.242;2023-03-03T08:02:59;44.28;;;27.30;;
21501;SDS011;27639;48.674;9.242;2023-03-03T08:05:37;47.17;;;28.55;;
21501;SDS011;27639;48.674;9.242;2023-03-03T08:13:08;42.80;;;25.88;;
21501;SDS011;27639;48.674;9.242;2023-03-03T08:15:44;41.72;;;26.35;;
21501;SDS011;27639;48.674;9.242;2023-03-03T08:18:45;41.28;;;26.67;;
21501;SDS011;27639;48.674;9.242;2023-03-03T08:21:09;40.08;;;24.98;;
21501;SDS011;27639;48.674;9.242;2023-03-03T08:23:37;41.55;;;24.75;;
21501;SDS011;27639;48.674;9.242;2023-03-03T08:26:02;40.03;;;24.85;;
21501;SDS011;27639;48.674;9.242;2023-03-03T08:28:28;38.78;;;23.58;;
21501;SDS011;27639;48.674;9.242;2023-03-03T08:30:54;43.47;;;24.30;;
21501;SDS011;27639;48.674;9.242;2023-03-03T08:33:19;35.65;;;22.70;;
21501;SDS011;27639;48.674;9.242;2023-03-03T08:35:45;36.00;;;22.88;;
21501;SDS011;27639;48.674;9.242;2023-03-03T08:38:12;36.00;;;22.10;;
21501;SDS011;27639;48.674;9.242;2023-03-03T08:40:39;34.53;;;21.95;;
21501;SDS011;27639;48.674;9.242;2023-03-03T08:43:05;42.63;;;23.65;;
21501;SDS011;27639;48.674;9.242;2023-03-03T08:45:31;36.85;;;22.08;;
21501;SDS011;27639;48.674;9.242;2023-03-03T08:47:57;37.67;;;21.65;;
21501;SDS011;27639;48.674;9.242;2023-03-03T08:50:24;34.15;;;21.40;;
21501;SDS011;27639;48.674;9.242;2023-03-03T08:52:49;37.22;;;21.95;;
21501;SDS011;27639;48.674;9.242;2023-03-03T08:55:15;36.13;;;21.50;;
21501;SDS011;27639;48.674;9.242;2023-03-03T08:57:41;33.28;;;20.85;;
21501;SDS011;27639;48.674;9.242;2023-03-03T09:00:08;35.50;;;22.08;;
21501;SDS011;27639;48.674;9.242;2023-03-03T09:02:35;35.95;;;21.58;;
21501;SDS011;27639;48.674;9.242;2023-03-03T09:05:02;36.95;;;22.30;;
21501;SDS011;27639;48.674;9.242;2023-03-03T09:07:28;36.75;;;21.23;;
21501;SDS011;27639;48.674;9.242;2023-03-03T09:09:54;36.65;;;22.27;;
21501;SDS011;27639;48.674;9.242;2023-03-03T09:12:53;34.70;;;22.17;;
21501;SDS011;27639;48.674;9.242;2023-03-03T09:15:28;30.88;;;20.15;;
21501;SDS011;27639;48.674;9.242;2023-03-03T09:18:04;35.92;;;21.88;;
21501;SDS011;27639;48.674;9.242;2023-03-03T09:20:45;34.20;;;20.95;;
21501;SDS011;27639;48.674;9.242;2023-03-03T09:25:50;32.15;;;20.27;;
21501;SDS011;27639;48.674;9.242;2023-03-03T09:28:23;34.88;;;21.65;;
21501;SDS011;27639;48.674;9.242;2023-03-03T09:30:53;32.38;;;20.52;;
21501;SDS011;27639;48.674;9.242;2023-03-03T09:33:22;32.63;;;20.85;;
21501;SDS011;27639;48.674;9.242;2023-03-03T09:38:43;32.55;;;20.83;;
21501;SDS011;27639;48.674;9.242;2023-03-03T09:41:15;35.17;;;22.50;;
21501;SDS011;27639;48.674;9.242;2023-03-03T09:52:17;32.22;;;20.35;;
21501;SDS011;27639;48.674;9.242;2023-03-03T10:00:24;32.08;;;20.73;;
21501;SDS011;27639;48.674;9.242;2023-03-03T10:05:45;32.28;;;21.17;;
21501;SDS011;27639;48.674;9.242;2023-03-03T10:08:42;33.50;;;23.47;;
21501;SDS011;27639;48.674;9.242;2023-03-03T10:11:53;39.78;;;23.17;;
21501;SDS011;27639;48.674;9.242;2023-03-03T10:22:51;36.78;;;24.15;;
21501;SDS011;27639;48.674;9.242;2023-03-03T10:33:11;35.65;;;24.20;;
21501;SDS011;27639;48.674;9.242;2023-03-03T10:36:02;36.25;;;23.27;;
21501;SDS011;27639;48.674;9.242;2023-03-03T10:43:56;36.50;;;23.35;;
21501;SDS011;27639;48.674;9.242;2023-03-03T10:54:54;33.13;;;22.98;;
21501;SDS011;27639;48.674;9.242;2023-03-03T10:57:57;32.17;;;21.60;;
21501;SDS011;27639;48.674;9.242;2023-03-03T11:05:53;33.42;;;22.63;;
21501;SDS011;27639;48.674;9.242;2023-03-03T11:08:35;35.90;;;23.98;;
21501;SDS011;27639;48.674;9.242;2023-03-03T11:14:08;38.63;;;23.67;;
21501;SDS011;27639;48.674;9.242;2023-03-03T11:16:56;36.05;;;23.88;;
21501;SDS011;27639;48.674;9.242;2023-03-03T11:25:12;35.83;;;23.67;;
21501;SDS011;27639;48.674;9.242;2023-03-03T11:36:40;33.63;;;20.98;;
21501;SDS011;27639;48.674;9.242;2023-03-03T11:39:27;30.58;;;21.77;;
21501;SDS011;27639;48.674;9.242;2023-03-03T11:46:59;34.10;;;22.75;;
21501;SDS011;27639;48.674;9.242;2023-03-03T11:49:49;34.70;;;22.70;;
21501;SDS011;27639;48.674;9.242;2023-03-03T11:52:41;31.60;;;21.77;;
21501;SDS011;27639;48.674;9.242;2023-03-03T11:55:37;34.85;;;22.23;;
21501;SDS011;27639;48.674;9.242;2023-03-03T11:58:26;28.13;;;20.58;;
21501;SDS011;27639;48.674;9.242;2023-03-03T12:06:30;34.65;;;22.80;;
21501;SDS011;27639;48.674;9.242;2023-03-03T12:09:19;33.55;;;21.73;;
21501;SDS011;27639;48.674;9.242;2023-03-03T12:12:15;32.88;;;22.08;;
21501;SDS011;27639;48.674;9.242;2023-03-03T12:25:42;39.90;;;23.23;;
21501;SDS011;27639;48.674;9.242;2023-03-03T12:28:23;34.75;;;23.45;;
21501;SDS011;27639;48.674;9.242;2023-03-03T12:33:56;33.93;;;22.73;;
21501;SDS011;27639;48.674;9.242;2023-03-03T12:44:37;34.88;;;23.63;;
21501;SDS011;27639;48.674;9.242;2023-03-03T12:47:37;37.10;;;24.20;;
21501;SDS011;27639;48.674;9.242;2023-03-03T12:52:43;31.92;;;23.10;;
21501;SDS011;27639;48.674;9.242;2023-03-03T12:55:16;34.85;;;22.75;;
21501;SDS011;27639;48.674;9.242;2023-03-03T13:03:04;33.08;;;23.45;;
21501;SDS011;27639;48.674;9.242;2023-03-03T13:08:23;33.60;;;23.20;;
21501;SDS011;27639;48.674;9.242;2023-03-03T13:11:05;34.38;;;22.50;;
21501;SDS011;27639;48.674;9.242;2023-03-03T13:16:05;34.60;;;23.08;;
21501;SDS011;27639;48.674;9.242;2023-03-03T13:18:47;32.28;;;22.48;;
21501;SDS011;27639;48.674;9.242;2023-03-03T13:26:42;30.00;;;21.33;;
21501;SDS011;27639;48.674;9.242;2023-03-03T13:31:55;29.60;;;21.70;;
21501;SDS011;27639;48.674;9.242;2023-03-03T13:37:13;31.58;;;21.77;;
21501;SDS011;27639;48.674;9.242;2023-03-03T13:40:05;28.15;;;21.45;;
21501;SDS011;27639;48.674;9.242;2023-03-03T13:59:31;30.88;;;21.50;;
21501;SDS011;27639;48.674;9.242;2023-03-03T14:04:52;30.52;;;21.13;;
21501;SDS011;27639;48.674;9.242;2023-03-03T14:09:56;28.05;;;19.38;;
21501;SDS011;27639;48.674;9.242;2023-03-03T14:15:23;28.42;;;20.27;;
21501;SDS011;27639;48.674;9.242;2023-03-03T14:20:50;27.35;;;19.48;;
21501;SDS011;27639;48.674;9.242;2023-03-03T14:23:25;26.67;;;19.47;;
21501;SDS011;27639;48.674;9.242;2023-03-03T14:26:10;26.23;;;18.88;;
21501;SDS011;27639;48.674;9.242;2023-03-03T14:28:37;26.05;;;19.17;;
21501;SDS011;27639;48.674;9.242;2023-03-03T14:31:38;27.52;;;19.58;;
21501;SDS011;27639;48.674;9.242;2023-03-03T14:36:37;27.42;;;20.83;;
21501;SDS011;27639;48.674;9.242;2023-03-03T14:42:13;27.08;;;20.17;;
21501;SDS011;27639;48.674;9.242;2023-03-03T14:44:54;28.60;;;19.55;;
21501;SDS011;27639;48.674;9.242;2023-03-03T14:47:23;26.42;;;19.00;;
21501;SDS011;27639;48.674;9.242;2023-03-03T14:49:51;27.73;;;19.02;;
21501;SDS011;27639;48.674;9.242;2023-03-03T14:52:23;25.42;;;17.70;;
21501;SDS011;27639;48.674;9.242;2023-03-03T14:54:56;26.60;;;19.80;;
21501;SDS011;27639;48.674;9.242;2023-03-03T14:57:40;28.52;;;20.70;;
21501;SDS011;27639;48.674;9.242;2023-03-03T15:05:29;29.55;;;19.27;;
21501;SDS011;27639;48.674;9.242;2023-03-03T15:10:33;27.73;;;20.23;;
21501;SDS011;27639;48.674;9.242;2023-03-03T15:15:51;27.02;;;19.48;;
21501;SDS011;27639;48.674;9.242;2023-03-03T15:18:23;28.05;;;19.70;;
21501;SDS011;27639;48.674;9.242;2023-03-03T15:29:14;30.50;;;19.67;;
21501;SDS011;27639;48.674;9.242;2023-03-03T15:45:20;30.10;;;20.63;;
21501;SDS011;27639;48.674;9.242;2023-03-03T15:50:51;28.50;;;19.23;;
21501;SDS011;27639;48.674;9.242;2023-03-03T15:56:13;29.92;;;19.92;;
21501;SDS011;27639;48.674;9.242;2023-03-03T15:59:07;28.73;;;19.00;;
21501;SDS011;27639;48.674;9.242;2023-03-03T16:04:17;30.90;;;19.63;;
21501;SDS011;27639;48.674;9.242;2023-03-03T16:23:15;30.42;;;19.80;;
21501;SDS011;27639;48.674;9.242;2023-03-03T16:26:06;31.92;;;20.45;;
21501;SDS011;27639;48.674;9.242;2023-03-03T16:28:58;31.95;;;19.98;;
21501;SDS011;27639;48.674;9.242;2023-03-03T16:34:35;32.78;;;20.25;;
21501;SDS011;27639;48.674;9.242;2023-03-03T16:40:13;30.38;;;20.73;;
21501;SDS011;27639;48.674;9.242;2023-03-03T16:42:48;34.90;;;22.58;;
21501;SDS011;27639;48.674;9.242;2023-03-03T16:45:29;37.95;;;23.58;;
21501;SDS011;27639;48.674;9.242;2023-03-03T16:48:44;36.63;;;23.63;;
21501;SDS011;27639;48.674;9.242;2023-03-03T16:53:42;42.63;;;26.95;;
21501;SDS011;27639;48.674;9.242;2023-03-03T17:18:55;33.20;;;21.80;;
21501;SDS011;27639;48.674;9.242;2023-03-03T17:24:37;43.78;;;27.55;;
21501;SDS011;27639;48.674;9.242;2023-03-03T17:27:37;37.25;;;24.98;;
21501;SDS011;27639;48.674;9.242;2023-03-03T17:30:55;35.45;;;23.63;;
21501;SDS011;27639;48.674;9.242;2023-03-03T17:45:17;33.92;;;22.23;;
21501;SDS011;27639;48.674;9.242;2023-03-03T17:47:49;34.38;;;21.65;;
21501;SDS011;27639;48.674;9.242;2023-03-03T17:58:29;30.52;;;21.67;;
21501;SDS011;27639;48.674;9.242;2023-03-03T18:04:47;37.83;;;22.42;;
21501;SDS011;27639;48.674;9.242;2023-03-03T18:21:01;39.00;;;22.95;;
21501;SDS011;27639;48.674;9.242;2023-03-03T18:34:29;36.33;;;23.60;;
21501;SDS011;27639;48.674;9.242;2023-03-03T18:42:39;36.00;;;22.88;;
21501;SDS011;27639;48.674;9.242;2023-03-03T18:50:41;35.97;;;23.55;;
21501;SDS011;27639;48.674;9.242;2023-03-03T18:53:21;38.90;;;22.55;;
21501;SDS011;27639;48.674;9.242;2023-03-03T18:55:53;36.50;;;23.98;;
21501;SDS011;27639;48.674;9.242;2023-03-03T18:58:30;35.03;;;22.67;;
21501;SDS011;27639;48.674;9.242;2023-03-03T19:09:03;37.83;;;23.95;;
21501;SDS011;27639;48.674;9.242;2023-03-03T19:11:35;36.58;;;24.55;;
21501;SDS011;27639;48.674;9.242;2023-03-03T19:16:50;41.85;;;26.13;;
21501;SDS011;27639;48.674;9.242;2023-03-03T19:19:17;41.22;;;27.00;;
21501;SDS011;27639;48.674;9.242;2023-03-03T19:21:47;44.15;;;27.58;;
21501;SDS011;27639;48.674;9.242;2023-03-03T19:43:52;39.40;;;25.30;;
21501;SDS011;27639;48.674;9.242;2023-03-03T19:46:24;43.88;;;26.88;;
21501;SDS011;27639;48.674;9.242;2023-03-03T19:49:21;42.10;;;25.80;;
21501;SDS011;27639;48.674;9.242;2023-03-03T19:52:02;42.03;;;26.30;;
21501;SDS011;27639;48.674;9.242;2023-03-03T20:00:42;40.33;;;24.00;;
21501;SDS011;27639;48.674;9.242;2023-03-03T20:06:21;39.80;;;24.23;;
21501;SDS011;27639;48.674;9.242;2023-03-03T20:09:21;41.60;;;25.75;;
21501;SDS011;27639;48.674;9.242;2023-03-03T20:14:54;37.25;;;24.83;;
21501;SDS011;27639;48.674;9.242;2023-03-03T20:23:35;39.58;;;25.33;;
21501;SDS011;27639;48.674;9.242;2023-03-03T20:38:07;40.38;;;25.30;;
21501;SDS011;27639;48.674;9.242;2023-03-03T20:54:42;45.28;;;26.52;;
21501;SDS011;27639;48.674;9.242;2023-03-03T21:07:37;41.20;;;24.92;;
21501;SDS011;27639;48.674;9.242;2023-03-03T21:10:14;44.05;;;25.60;;
21501;SDS011;27639;48.674;9.242;2023-03-03T21:12:41;43.05;;;24.65;;
21501;SDS011;27639;48.674;9.242;2023-03-03T21:15:10;43.05;;;25.50;;
21501;SDS011;27639;48.674;9.242;2023-03-03T21:17:50;43.17;;;26.17;;
21501;SDS011;27639;48.674;9.242;2023-03-03T21:20:34;39.90;;;25.50;;
21501;SDS011;27639;48.674;9.242;2023-03-03T21:23:00;47.15;;;27.45;;
21501;SDS011;27639;48.674;9.242;2023-03-03T21:33:45;41.47;;;25.60;;
21501;SDS011;27639;48.674;9.242;2023-03-03T21:37:04;40.40;;;24.48;;
21501;SDS011;27639;48.674;9.242;2023-03-03T21:44:46;36.05;;;22.42;;
21501;SDS011;27639;48.674;9.242;2023-03-03T21:47:19;39.53;;;23.63;;
21501;SDS011;27639;48.674;9.242;2023-03-03T21:49:47;38.17;;;24.02;;
21501;SDS011;27639;48.674;9.242;2023-03-03T21:52:15;39.55;;;23.52;;
21501;SDS011;27639;48.674;9.242;2023-03-03T21:54:42;39.38;;;24.35;;
21501;SDS011;27639;48.674;9.242;2023-03-03T21:57:12;38.17;;;24.13;;
21501;SDS011;27639;48.674;9.242;2023-03-03T21:59:38;38.13;;;23.83;;
21501;SDS011;27639;48.674;9.242;2023-03-03T22:02:04;39.13;;;25.33;;
21501;SDS011;27639;48.674;9.242;2023-03-03T22:04:30;42.70;;;26.42;;
21501;SDS011;27639;48.674;9.242;2023-03-03T22:06:57;44.42;;;25.80;;
21501;SDS011;27639;48.674;9.242;2023-03-03T22:09:22;50.10;;;28.92;;